sensor_id;sensor_type;location;lat;lon;timestamp;pressure;altitude;pressure_sealevel;temperature;humidity
58018;BME280;43810;50.860;19.226;2024-03-02T00:00:06;97998.06;;;6.12;100.00
58018;BME280;43810;50.860;19.226;2024-03-02T00:02:56;97998.06;;;6.12;100.00
58018;BME280;43810;50.860;19.226;2024-03-02T00:05:22;97998.06;;;6.12;100.00
58018;BME280;43810;50.860;19.226;2024-03-02T00:07:55;98009.41;;;6.13;100.00
58018;BME280;43810;50.860;19.226;2024-03-02T00:10:30;98012.47;;;6.23;100.00
58018;BME280;43810;50.860;19.226;2024-03-02T00:13:00;98005.97;;;6.21;100.00
58018;BME280;43810;50.860;19.226;2024-03-02T00:17:56;97996.50;;;6.28;100.00
58018;BME280;43810;50.860;19.226;2024-03-02T00:20:22;97993.09;;;6.28;100.00
58018;BME280;43810;50.860;19.226;2024-03-02T00:22:50;98000.97;;;6.36;100.00
58018;BME280;43810;50.860;19.226;2024-03-02T00:25:16;97999.28;;;6.40;100.00
58018;BME280;43810;50.860;19.226;2024-03-02T00:27:47;97992.13;;;6.41;100.00
58018;BME280;43810;50.860;19.226;2024-03-02T00:33:19;97987.59;;;6.50;100.00
58018;BME280;43810;50.860;19.226;2024-03-02T00:35:45;97987.28;;;6.43;100.00
58018;BME280;43810;50.860;19.226;2024-03-02T00:38:11;97987.63;;;6.41;100.00
58018;BME280;43810;50.860;19.226;2024-03-02T00:40:38;97988.56;;;6.37;100.00
58018;BME280;43810;50.860;19.226;2024-03-02T00:43:04;98000.81;;;6.33;100.00
58018;BME280;43810;50.860;19.226;2024-03-02T00:45:30;97998.66;;;6.35;100.00
58018;BME280;43810;50.860;19.226;2024-03-02T00:47:55;98010.16;;;6.30;100.00
58018;BME280;43810;50.860;19.226;2024-03-02T00:50:21;97998.97;;;6.33;100.00
58018;BME280;43810;50.860;19.226;2024-03-02T00:52:47;98001.13;;;6.31;100.00
58018;BME280;43810;50.860;19.226;2024-03-02T00:55:15;98001.31;;;6.26;100.00
58018;BME280;43810;50.860;19.226;2024-03-02T00:57:41;98000.50;;;6.34;100.00
58018;BME280;43810;50.860;19.226;2024-03-02T01:00:08;98005.00;;;6.34;100.00
58018;BME280;43810;50.860;19.226;2024-03-02T01:02:35;98018.34;;;6.37;100.00
58018;BME280;43810;50.860;19.226;2024-03-02T01:05:02;98000.06;;;6.24;100.00
58018;BME280;43810;50.860;19.226;2024-03-02T01:07:27;97998.06;;;6.21;100.00
58018;BME280;43810;50.860;19.226;2024-03-02T01:09:53;98001.78;;;6.28;100.00
58018;BME280;43810;50.860;19.226;2024-03-02T01:12:19;97997.13;;;6.25;100.00
58018;BME280;43810;50.860;19.226;2024-03-02T01:14:44;97997.59;;;6.27;100.00
58018;BME280;43810;50.860;19.226;2024-03-02T01:17:10;97994.47;;;6.25;100.00
58018;BME280;43810;50.860;19.226;2024-03-02T01:19:36;97991.09;;;6.16;100.00
58018;BME280;43810;50.860;19.226;2024-03-02T01:22:02;97990.34;;;6.07;100.00
58018;BME280;43810;50.860;19.226;2024-03-02T01:24:28;97980.25;;;6.00;100.00
58018;BME280;43810;50.860;19.226;2024-03-02T01:26:53;97968.00;;;5.96;100.00
58018;BME280;43810;50.860;19.226;2024-03-02T01:29:19;97972.34;;;5.92;100.00
58018;BME280;43810;50.860;19.226;2024-03-02T01:31:45;97980.41;;;5.87;100.00
58018;BME280;43810;50.860;19.226;2024-03-02T01:34:11;97979.03;;;5.89;100.00
58018;BME280;43810;50.860;19.226;2024-03-02T01:36:38;97973.91;;;5.84;100.00
58018;BME280;43810;50.860;19.226;2024-03-02T01:39:03;97972.69;;;5.82;100.00
58018;BME280;43810;50.860;19.226;2024-03-02T01:41:34;97970.03;;;5.82;100.00
58018;BME280;43810;50.860;19.226;2024-03-02T01:44:00;97974.22;;;5.83;100.00
58018;BME280;43810;50.860;19.226;2024-03-02T01:46:25;97964.00;;;5.81;100.00
58018;BME280;43810;50.860;19.226;2024-03-02T01:48:51;97965.53;;;5.82;100.00
58018;BME280;43810;50.860;19.226;2024-03-02T01:51:17;97965.84;;;5.89;100.00
58018;BME280;43810;50.860;19.226;2024-03-02T01:53:43;97962.59;;;5.92;100.00
58018;BME280;43810;50.860;19.226;2024-03-02T01:56:08;97964.59;;;5.95;100.00
58018;BME280;43810;50.860;19.226;2024-03-02T01:58:34;97955.91;;;5.95;100.00
58018;BME280;43810;50.860;19.226;2024-03-02T02:01:00;97956.97;;;6.02;100.00
58018;BME280;43810;50.860;19.226;2024-03-02T02:03:26;97959.00;;;6.05;100.00
58018;BME280;43810;50.860;19.226;2024-03-02T02:05:52;97960.72;;;6.01;100.00
58018;BME280;43810;50.860;19.226;2024-03-02T02:08:17;97960.88;;;5.88;100.00
58018;BME280;43810;50.860;19.226;2024-03-02T02:10:43;97959.19;;;5.83;100.00
58018;BME280;43810;50.860;19.226;2024-03-02T02:13:09;97949.88;;;5.77;100.00
58018;BME280;43810;50.860;19.226;2024-03-02T02:15:35;97957.31;;;5.66;100.00
58018;BME280;43810;50.860;19.226;2024-03-02T02:18:02;97957.78;;;5.77;100.00
58018;BME280;43810;50.860;19.226;2024-03-02T02:20:29;97952.50;;;5.77;100.00
58018;BME280;43810;50.860;19.226;2024-03-02T02:23:03;97952.19;;;5.79;100.00
58018;BME280;43810;50.860;19.226;2024-03-02T02:25:30;97944.59;;;5.77;100.00
58018;BME280;43810;50.860;19.226;2024-03-02T02:27:56;97950.66;;;5.78;100.00
58018;BME280;43810;50.860;19.226;2024-03-02T02:30:25;97940.56;;;5.80;100.00
58018;BME280;43810;50.860;19.226;2024-03-02T02:32:51;97943.66;;;5.73;100.00
58018;BME280;43810;50.860;19.226;2024-03-02T02:35:17;97939.19;;;5.65;100.00
58018;BME280;43810;50.860;19.226;2024-03-02T02:37:43;97937.94;;;5.62;100.00
58018;BME280;43810;50.860;19.226;2024-03-02T02:40:10;97928.97;;;5.72;100.00
58018;BME280;43810;50.860;19.226;2024-03-02T02:42:36;97921.06;;;5.72;100.00
58018;BME280;43810;50.860;19.226;2024-03-02T02:45:02;97922.75;;;5.77;100.00
58018;BME280;43810;50.860;19.226;2024-03-02T02:47:27;97924.44;;;5.81;100.00
58018;BME280;43810;50.860;19.226;2024-03-02T02:49:55;97915.94;;;5.84;100.00
58018;BME280;43810;50.860;19.226;2024-03-02T02:52:21;97910.31;;;5.86;100.00
58018;BME280;43810;50.860;19.226;2024-03-02T02:54:46;97920.41;;;5.92;100.00
58018;BME280;43810;50.860;19.226;2024-03-02T02:57:12;97923.81;;;5.93;100.00
58018;BME280;43810;50.860;19.226;2024-03-02T02:59:38;97924.72;;;5.97;100.00
58018;BME280;43810;50.860;19.226;2024-03-02T03:02:04;97924.88;;;6.00;100.00
58018;BME280;43810;50.860;19.226;2024-03-02T03:04:30;97930.34;;;5.95;100.00
58018;BME280;43810;50.860;19.226;2024-03-02T03:06:55;97928.16;;;5.89;100.00
58018;BME280;43810;50.860;19.226;2024-03-02T03:09:21;97927.06;;;5.90;100.00
58018;BME280;43810;50.860;19.226;2024-03-02T03:11:47;97927.56;;;5.83;100.00
58018;BME280;43810;50.860;19.226;2024-03-02T03:14:13;97922.91;;;5.80;100.00
58018;BME280;43810;50.860;19.226;2024-03-02T03:16:39;97929.56;;;5.78;100.00
58018;BME280;43810;50.860;19.226;2024-03-02T03:19:04;97924.75;;;5.80;100.00
58018;BME280;43810;50.860;19.226;2024-03-02T03:21:30;97929.56;;;5.78;100.00
58018;BME280;43810;50.860;19.226;2024-03-02T03:23:56;97935.44;;;5.74;100.00
58018;BME280;43810;50.860;19.226;2024-03-02T03:26:21;97928.00;;;5.77;100.00
58018;BME280;43810;50.860;19.226;2024-03-02T03:28:47;97929.41;;;5.74;100.00
58018;BME280;43810;50.860;19.226;2024-03-02T03:31:13;97933.28;;;5.77;100.00
58018;BME280;43810;50.860;19.226;2024-03-02T03:33:38;97933.91;;;5.82;100.00
58018;BME280;43810;50.860;19.226;2024-03-02T03:36:04;97926.91;;;5.86;100.00
58018;BME280;43810;50.860;19.226;2024-03-02T03:38:30;97928.13;;;5.97;100.00
58018;BME280;43810;50.860;19.226;2024-03-02T03:40:56;97936.38;;;5.87;100.00
58018;BME280;43810;50.860;19.226;2024-03-02T03:43:22;97929.56;;;5.78;100.00
58018;BME280;43810;50.860;19.226;2024-03-02T03:45:47;97930.81;;;5.80;100.00
58018;BME280;43810;50.860;19.226;2024-03-02T03:48:13;97933.59;;;5.84;100.00
58018;BME280;43810;50.860;19.226;2024-03-02T03:50:39;97928.63;;;5.91;100.00
58018;BME280;43810;50.860;19.226;2024-03-02T03:53:05;97923.97;;;5.88;100.00
58018;BME280;43810;50.860;19.226;2024-03-02T03:55:31;97917.78;;;5.84;100.00
58018;BME280;43810;50.860;19.226;2024-03-02T03:57:56;97915.91;;;5.93;100.00
58018;BME280;43810;50.860;19.226;2024-03-02T04:00:22;97915.28;;;5.96;100.00
58018;BME280;43810;50.860;19.226;2024-03-02T04:02:48;97920.56;;;5.96;100.00
58018;BME280;43810;50.860;19.226;2024-03-02T04:05:14;97915.41;;;5.99;100.00
58018;BME280;43810;50.860;19.226;2024-03-02T04:07:39;97925.84;;;5.96;100.00
58018;BME280;43810;50.860;19.226;2024-03-02T04:10:09;97909.25;;;5.95;100.00
58018;BME280;43810;50.860;19.226;2024-03-02T04:12:38;97918.50;;;6.01;100.00
58018;BME280;43810;50.860;19.226;2024-03-02T04:15:05;97920.38;;;6.01;100.00
58018;BME280;43810;50.860;19.226;2024-03-02T04:17:33;97920.84;;;6.03;100.00
58018;BME280;43810;50.860;19.226;2024-03-02T04:19:59;97920.84;;;6.03;100.00
58018;BME280;43810;50.860;19.226;2024-03-02T04:22:26;97921.47;;;6.00;100.00
58018;BME280;43810;50.860;19.226;2024-03-02T04:24:52;97923.31;;;5.99;100.00
58018;BME280;43810;50.860;19.226;2024-03-02T04:27:18;97910.00;;;6.04;100.00
58018;BME280;43810;50.860;19.226;2024-03-02T04:29:44;97913.72;;;6.03;100.00
58018;BME280;43810;50.860;19.226;2024-03-02T04:32:10;97917.91;;;6.04;100.00
58018;BME280;43810;50.860;19.226;2024-03-02T04:34:35;97909.03;;;6.09;100.00
58018;BME280;43810;50.860;19.226;2024-03-02T04:37:01;97913.72;;;6.03;100.00
58018;BME280;43810;50.860;19.226;2024-03-02T04:39:27;97910.75;;;6.05;100.00
58018;BME280;43810;50.860;19.226;2024-03-02T04:41:52;97907.03;;;6.06;100.00
58018;BME280;43810;50.860;19.226;2024-03-02T04:44:18;97925.63;;;6.09;100.00
58018;BME280;43810;50.860;19.226;2024-03-02T04:46:44;97927.19;;;6.02;100.00
58018;BME280;43810;50.860;19.226;2024-03-02T04:49:09;97932.97;;;5.95;100.00
58018;BME280;43810;50.860;19.226;2024-03-02T04:51:35;97926.44;;;6.01;100.00
58018;BME280;43810;50.860;19.226;2024-03-02T04:54:01;97934.97;;;5.98;100.00
58018;BME280;43810;50.860;19.226;2024-03-02T04:56:26;97928.28;;;6.01;100.00
58018;BME280;43810;50.860;19.226;2024-03-02T04:58:58;97931.41;;;6.03;100.00
58018;BME280;43810;50.860;19.226;2024-03-02T05:01:24;97926.59;;;6.05;100.00
58018;BME280;43810;50.860;19.226;2024-03-02T05:03:50;97922.56;;;6.07;100.00
58018;BME280;43810;50.860;19.226;2024-03-02T05:06:16;97924.06;;;6.08;100.00
58018;BME280;43810;50.860;19.226;2024-03-02T05:08:41;97923.28;;;6.08;100.00
58018;BME280;43810;50.860;19.226;2024-03-02T05:11:07;97933.09;;;6.07;100.00
58018;BME280;43810;50.860;19.226;2024-03-02T05:13:52;97923.63;;;6.06;100.00
58018;BME280;43810;50.860;19.226;2024-03-02T05:16:17;97927.06;;;6.07;100.00
58018;BME280;43810;50.860;19.226;2024-03-02T05:18:43;97926.28;;;6.06;100.00
58018;BME280;43810;50.860;19.226;2024-03-02T05:21:09;97928.44;;;6.04;100.00
58018;BME280;43810;50.860;19.226;2024-03-02T05:23:34;97935.13;;;6.02;100.00
58018;BME280;43810;50.860;19.226;2024-03-02T05:26:00;97926.59;;;6.05;100.00
58018;BME280;43810;50.860;19.226;2024-03-02T05:28:26;97925.19;;;5.99;100.00
58018;BME280;43810;50.860;19.226;2024-03-02T05:30:52;97928.28;;;6.01;100.00
58018;BME280;43810;50.860;19.226;2024-03-02T05:33:17;97941.16;;;6.02;100.00
58018;BME280;43810;50.860;19.226;2024-03-02T05:35:44;97945.19;;;6.00;100.00
58018;BME280;43810;50.860;19.226;2024-03-02T05:38:09;97947.66;;;5.96;100.00
58018;BME280;43810;50.860;19.226;2024-03-02T05:40:35;97944.59;;;5.94;100.00
58018;BME280;43810;50.860;19.226;2024-03-02T05:43:01;97955.75;;;5.91;100.00
58018;BME280;43810;50.860;19.226;2024-03-02T05:45:27;97950.19;;;5.93;100.00
58018;BME280;43810;50.860;19.226;2024-03-02T05:47:52;97957.00;;;5.94;100.00
58018;BME280;43810;50.860;19.226;2024-03-02T05:50:18;97963.06;;;5.94;100.00
58018;BME280;43810;50.860;19.226;2024-03-02T05:52:45;97962.56;;;6.01;100.00
58018;BME280;43810;50.860;19.226;2024-03-02T05:55:11;97965.97;;;6.01;100.00
58018;BME280;43810;50.860;19.226;2024-03-02T05:57:36;97957.16;;;5.89;100.00
58018;BME280;43810;50.860;19.226;2024-03-02T06:00:21;97963.66;;;5.91;100.00
58018;BME280;43810;50.860;19.226;2024-03-02T06:02:47;97970.66;;;5.96;100.00
58018;BME280;43810;50.860;19.226;2024-03-02T06:05:14;97969.53;;;5.97;100.00
58018;BME280;43810;50.860;19.226;2024-03-02T06:07:40;97969.69;;;6.00;100.00
58018;BME280;43810;50.860;19.226;2024-03-02T06:10:06;97966.75;;;6.02;100.00
58018;BME280;43810;50.860;19.226;2024-03-02T06:12:34;97979.16;;;6.10;100.00
58018;BME280;43810;50.860;19.226;2024-03-02T06:15:00;97991.25;;;6.11;100.00
58018;BME280;43810;50.860;19.226;2024-03-02T06:17:25;97988.31;;;6.13;100.00
58018;BME280;43810;50.860;19.226;2024-03-02T06:19:51;97996.06;;;6.09;100.00
58018;BME280;43810;50.860;19.226;2024-03-02T06:22:17;97999.47;;;6.09;100.00
58018;BME280;43810;50.860;19.226;2024-03-02T06:24:44;97984.72;;;6.17;100.00
58018;BME280;43810;50.860;19.226;2024-03-02T06:27:10;97986.41;;;6.22;100.00
58018;BME280;43810;50.860;19.226;2024-03-02T06:29:36;97995.56;;;6.24;100.00
58018;BME280;43810;50.860;19.226;2024-03-02T06:32:01;97999.28;;;6.23;100.00
58018;BME280;43810;50.860;19.226;2024-03-02T06:34:27;97996.66;;;6.23;100.00
58018;BME280;43810;50.860;19.226;2024-03-02T06:36:53;97986.25;;;6.27;100.00
58018;BME280;43810;50.860;19.226;2024-03-02T06:39:19;97987.31;;;6.34;100.00
58018;BME280;43810;50.860;19.226;2024-03-02T06:41:44;97985.88;;;6.45;100.00
58018;BME280;43810;50.860;19.226;2024-03-02T06:44:13;97994.75;;;6.50;100.00
58018;BME280;43810;50.860;19.226;2024-03-02T06:46:38;97999.06;;;6.54;100.00
58018;BME280;43810;50.860;19.226;2024-03-02T06:49:04;98004.13;;;6.68;100.00
58018;BME280;43810;50.860;19.226;2024-03-02T06:51:30;98005.22;;;6.67;100.00
58018;BME280;43810;50.860;19.226;2024-03-02T06:53:56;98001.25;;;6.52;100.00
58018;BME280;43810;50.860;19.226;2024-03-02T06:56:22;98001.09;;;6.49;100.00
58018;BME280;43810;50.860;19.226;2024-03-02T06:58:48;98003.59;;;6.54;100.00
58018;BME280;43810;50.860;19.226;2024-03-02T07:01:13;98006.81;;;6.59;100.00
58018;BME280;43810;50.860;19.226;2024-03-02T07:03:39;98005.22;;;6.67;100.00
58018;BME280;43810;50.860;19.226;2024-03-02T07:06:05;97995.28;;;6.72;100.00
58018;BME280;43810;50.860;19.226;2024-03-02T07:08:31;97994.22;;;6.65;100.00
58018;BME280;43810;50.860;19.226;2024-03-02T07:10:57;97997.78;;;6.69;100.00
58018;BME280;43810;50.860;19.226;2024-03-02T07:13:23;97998.19;;;6.79;100.00
58018;BME280;43810;50.860;19.226;2024-03-02T07:15:48;97999.78;;;6.72;100.00
58018;BME280;43810;50.860;19.226;2024-03-02T07:18:30;98016.97;;;6.87;100.00
58018;BME280;43810;50.860;19.226;2024-03-02T07:21:07;98014.94;;;6.92;100.00
58018;BME280;43810;50.860;19.226;2024-03-02T07:23:34;98004.69;;;6.99;100.00
58018;BME280;43810;50.860;19.226;2024-03-02T07:25:59;98019.41;;;7.00;100.00
58018;BME280;43810;50.860;19.226;2024-03-02T07:28:27;98019.38;;;7.09;100.00
58018;BME280;43810;50.860;19.226;2024-03-02T07:31:03;98017.66;;;7.13;100.00
58018;BME280;43810;50.860;19.226;2024-03-02T07:33:30;98022.44;;;7.20;100.00
58018;BME280;43810;50.860;19.226;2024-03-02T07:35:57;98023.69;;;7.22;100.00
58018;BME280;43810;50.860;19.226;2024-03-02T07:38:25;98030.53;;;7.14;100.00
58018;BME280;43810;50.860;19.226;2024-03-02T07:40:51;98042.16;;;7.22;100.00
58018;BME280;43810;50.860;19.226;2024-03-02T07:43:18;98044.03;;;7.22;100.00
58018;BME280;43810;50.860;19.226;2024-03-02T07:45:45;98039.84;;;7.21;100.00
58018;BME280;43810;50.860;19.226;2024-03-02T07:48:11;98029.28;;;7.21;100.00
58018;BME280;43810;50.860;19.226;2024-03-02T07:50:36;98039.34;;;7.27;100.00
58018;BME280;43810;50.860;19.226;2024-03-02T07:53:05;98031.59;;;7.22;100.00
58018;BME280;43810;50.860;19.226;2024-03-02T07:55:31;98037.00;;;7.26;100.00
58018;BME280;43810;50.860;19.226;2024-03-02T07:57:57;98033.09;;;7.32;100.00
58018;BME280;43810;50.860;19.226;2024-03-02T08:00:23;98044.91;;;7.34;100.00
58018;BME280;43810;50.860;19.226;2024-03-02T08:02:50;98040.25;;;7.31;100.00
58018;BME280;43810;50.860;19.226;2024-03-02T08:05:19;98029.94;;;7.38;100.00
58018;BME280;43810;50.860;19.226;2024-03-02T08:07:45;98034.38;;;7.55;100.00
58018;BME280;43810;50.860;19.226;2024-03-02T08:10:12;98033.53;;;7.63;100.00
58018;BME280;43810;50.860;19.226;2024-03-02T08:12:37;98031.34;;;7.65;100.00
58018;BME280;43810;50.860;19.226;2024-03-02T08:15:03;98041.06;;;7.73;100.00
58018;BME280;43810;50.860;19.226;2024-03-02T08:17:30;98034.75;;;7.86;100.00
58018;BME280;43810;50.860;19.226;2024-03-02T08:19:56;98024.56;;;7.97;100.00
58018;BME280;43810;50.860;19.226;2024-03-02T08:22:23;98037.38;;;8.07;100.00
58018;BME280;43810;50.860;19.226;2024-03-02T08:24:51;98042.78;;;8.32;100.00
58018;BME280;43810;50.860;19.226;2024-03-02T08:27:17;98036.84;;;8.35;100.00
58018;BME280;43810;50.860;19.226;2024-03-02T08:29:42;98037.06;;;8.42;100.00
58018;BME280;43810;50.860;19.226;2024-03-02T08:32:08;98041.06;;;8.48;100.00
58018;BME280;43810;50.860;19.226;2024-03-02T08:34:34;98032.06;;;8.73;100.00
58018;BME280;43810;50.860;19.226;2024-03-02T08:37:02;98033.75;;;8.78;100.00
58018;BME280;43810;50.860;19.226;2024-03-02T08:39:27;98038.88;;;8.62;100.00
58018;BME280;43810;50.860;19.226;2024-03-02T08:41:54;98043.09;;;8.63;100.00
58018;BME280;43810;50.860;19.226;2024-03-02T08:44:20;98035.06;;;8.72;100.00
58018;BME280;43810;50.860;19.226;2024-03-02T08:46:46;98045.31;;;8.61;100.00
58018;BME280;43810;50.860;19.226;2024-03-02T08:49:12;98045.41;;;8.64;100.00
58018;BME280;43810;50.860;19.226;2024-03-02T08:51:38;98051.19;;;8.79;100.00
58018;BME280;43810;50.860;19.226;2024-03-02T08:54:04;98045.31;;;8.85;100.00
58018;BME280;43810;50.860;19.226;2024-03-02T08:56:31;98044.16;;;8.95;100.00
58018;BME280;43810;50.860;19.226;2024-03-02T08:58:57;98046.81;;;9.07;100.00
58018;BME280;43810;50.860;19.226;2024-03-02T09:01:22;98038.41;;;9.05;100.00
58018;BME280;43810;50.860;19.226;2024-03-02T09:03:48;98039.72;;;9.11;100.00
58018;BME280;43810;50.860;19.226;2024-03-02T09:06:17;98042.38;;;8.99;100.00
58018;BME280;43810;50.860;19.226;2024-03-02T09:08:43;98042.25;;;9.08;100.00
58018;BME280;43810;50.860;19.226;2024-03-02T09:11:10;98041.06;;;9.17;100.00
58018;BME280;43810;50.860;19.226;2024-03-02T09:13:37;98043.28;;;9.40;100.00
58018;BME280;43810;50.860;19.226;2024-03-02T09:16:03;98050.16;;;9.41;100.00
58018;BME280;43810;50.860;19.226;2024-03-02T09:18:29;98050.53;;;9.67;100.00
58018;BME280;43810;50.860;19.226;2024-03-02T09:20:55;98052.19;;;9.71;100.00
58018;BME280;43810;50.860;19.226;2024-03-02T09:23:22;98049.56;;;9.47;100.00
58018;BME280;43810;50.860;19.226;2024-03-02T09:25:48;98051.78;;;9.45;100.00
58018;BME280;43810;50.860;19.226;2024-03-02T09:28:15;98049.03;;;9.42;100.00
58018;BME280;43810;50.860;19.226;2024-03-02T09:30:41;98045.06;;;9.48;100.00
58018;BME280;43810;50.860;19.226;2024-03-02T09:33:07;98054.22;;;9.50;100.00
58018;BME280;43810;50.860;19.226;2024-03-02T09:35:33;98063.25;;;9.74;100.00
58018;BME280;43810;50.860;19.226;2024-03-02T09:38:00;98054.28;;;9.66;100.00
58018;BME280;43810;50.860;19.226;2024-03-02T09:40:26;98058.16;;;9.81;100.00
58018;BME280;43810;50.860;19.226;2024-03-02T09:42:54;98056.78;;;9.99;100.00
58018;BME280;43810;50.860;19.226;2024-03-02T09:45:23;98062.47;;;10.13;100.00
58018;BME280;43810;50.860;19.226;2024-03-02T09:47:50;98069.28;;;9.98;100.00
58018;BME280;43810;50.860;19.226;2024-03-02T09:50:16;98069.66;;;10.13;100.00
58018;BME280;43810;50.860;19.226;2024-03-02T09:52:42;98074.16;;;9.96;100.00
58018;BME280;43810;50.860;19.226;2024-03-02T09:55:08;98070.75;;;9.84;100.00
58018;BME280;43810;50.860;19.226;2024-03-02T09:57:35;98074.06;;;9.68;100.00
58018;BME280;43810;50.860;19.226;2024-03-02T10:00:01;98064.25;;;9.57;100.00
58018;BME280;43810;50.860;19.226;2024-03-02T10:02:27;98070.22;;;9.66;100.00
58018;BME280;43810;50.860;19.226;2024-03-02T10:04:52;98074.19;;;9.72;100.00
58018;BME280;43810;50.860;19.226;2024-03-02T10:07:18;98060.56;;;9.98;100.00
58018;BME280;43810;50.860;19.226;2024-03-02T10:09:46;98054.94;;;9.87;100.00
58018;BME280;43810;50.860;19.226;2024-03-02T10:12:13;98061.13;;;9.79;100.00
58018;BME280;43810;50.860;19.226;2024-03-02T10:14:40;98056.03;;;9.86;100.00
58018;BME280;43810;50.860;19.226;2024-03-02T10:17:08;98052.91;;;9.96;100.00
58018;BME280;43810;50.860;19.226;2024-03-02T10:19:34;98056.88;;;10.02;100.00
58018;BME280;43810;50.860;19.226;2024-03-02T10:22:02;98053.34;;;9.98;100.00
58018;BME280;43810;50.860;19.226;2024-03-02T10:24:41;98056.53;;;10.04;100.00
58018;BME280;43810;50.860;19.226;2024-03-02T10:27:32;98059.34;;;9.95;100.00
58018;BME280;43810;50.860;19.226;2024-03-02T10:29:59;98061.91;;;9.80;100.00
58018;BME280;43810;50.860;19.226;2024-03-02T10:32:28;98053.63;;;9.81;100.00
58018;BME280;43810;50.860;19.226;2024-03-02T10:34:54;98061.59;;;9.69;100.00
58018;BME280;43810;50.860;19.226;2024-03-02T10:37:20;98062.25;;;9.66;100.00
58018;BME280;43810;50.860;19.226;2024-03-02T10:39:47;98060.28;;;9.63;100.00
58018;BME280;43810;50.860;19.226;2024-03-02T10:42:14;98053.16;;;9.79;100.00
58018;BME280;43810;50.860;19.226;2024-03-02T10:44:40;98061.72;;;9.73;100.00
58018;BME280;43810;50.860;19.226;2024-03-02T10:47:08;98060.94;;;9.72;100.00
58018;BME280;43810;50.860;19.226;2024-03-02T10:49:34;98062.38;;;9.69;100.00
58018;BME280;43810;50.860;19.226;2024-03-02T10:52:00;98057.41;;;9.56;100.00
58018;BME280;43810;50.860;19.226;2024-03-02T10:54:27;98052.69;;;9.49;100.00
58018;BME280;43810;50.860;19.226;2024-03-02T10:56:58;98054.13;;;9.34;100.00
58018;BME280;43810;50.860;19.226;2024-03-02T10:59:34;98059.84;;;9.49;100.00
58018;BME280;43810;50.860;19.226;2024-03-02T11:02:03;98054.22;;;9.50;100.00
58018;BME280;43810;50.860;19.226;2024-03-02T11:04:30;98043.28;;;9.52;100.00
58018;BME280;43810;50.860;19.226;2024-03-02T11:07:02;98058.41;;;9.63;100.00
58018;BME280;43810;50.860;19.226;2024-03-02T11:09:29;98051.22;;;9.76;100.00
58018;BME280;43810;50.860;19.226;2024-03-02T11:12:51;98052.72;;;9.77;100.00
58018;BME280;43810;50.860;19.226;2024-03-02T11:15:17;98052.25;;;9.99;100.00
58018;BME280;43810;50.860;19.226;2024-03-02T11:17:45;98052.50;;;10.22;100.00
58018;BME280;43810;50.860;19.226;2024-03-02T11:20:12;98057.13;;;10.25;100.00
58018;BME280;43810;50.860;19.226;2024-03-02T11:22:39;98062.81;;;10.39;100.00
58018;BME280;43810;50.860;19.226;2024-03-02T11:25:05;98061.88;;;10.32;100.00
58018;BME280;43810;50.860;19.226;2024-03-02T11:33:00;98054.91;;;10.27;100.00
58018;BME280;43810;50.860;19.226;2024-03-02T11:35:31;98047.50;;;10.33;100.00
58018;BME280;43810;50.860;19.226;2024-03-02T11:37:57;98043.78;;;10.37;100.00
58018;BME280;43810;50.860;19.226;2024-03-02T11:40:28;98046.00;;;10.35;100.00
58018;BME280;43810;50.860;19.226;2024-03-02T11:42:54;98046.41;;;10.50;100.00
58018;BME280;43810;50.860;19.226;2024-03-02T11:45:25;98044.84;;;10.49;100.00
58018;BME280;43810;50.860;19.226;2024-03-02T11:47:53;98045.38;;;10.70;100.00
58018;BME280;43810;50.860;19.226;2024-03-02T11:50:29;98033.91;;;10.81;100.00
58018;BME280;43810;50.860;19.226;2024-03-02T11:52:57;98045.84;;;10.88;100.00
58018;BME280;43810;50.860;19.226;2024-03-02T11:55:25;98041.03;;;11.09;100.00
58018;BME280;43810;50.860;19.226;2024-03-02T11:57:52;98042.50;;;11.06;100.00
58018;BME280;43810;50.860;19.226;2024-03-02T12:00:19;98043.03;;;11.12;100.00
58018;BME280;43810;50.860;19.226;2024-03-02T12:02:46;98040.53;;;10.88;100.00
58018;BME280;43810;50.860;19.226;2024-03-02T12:05:16;98031.28;;;10.97;100.00
58018;BME280;43810;50.860;19.226;2024-03-02T12:07:43;98037.13;;;11.03;100.00
58018;BME280;43810;50.860;19.226;2024-03-02T12:10:08;98041.66;;;11.18;100.00
58018;BME280;43810;50.860;19.226;2024-03-02T12:12:34;98033.16;;;11.28;100.00
58018;BME280;43810;50.860;19.226;2024-03-02T12:15:00;98031.91;;;11.22;100.00
58018;BME280;43810;50.860;19.226;2024-03-02T12:17:26;98037.38;;;11.29;100.00
58018;BME280;43810;50.860;19.226;2024-03-02T12:19:52;98038.38;;;11.40;100.00
58018;BME280;43810;50.860;19.226;2024-03-02T12:22:18;98030.56;;;11.47;100.00
58018;BME280;43810;50.860;19.226;2024-03-02T12:24:44;98024.28;;;11.56;100.00
58018;BME280;43810;50.860;19.226;2024-03-02T12:27:15;98034.91;;;11.56;100.00
58018;BME280;43810;50.860;19.226;2024-03-02T12:29:41;98028.91;;;11.59;100.00
58018;BME280;43810;50.860;19.226;2024-03-02T12:32:07;98023.50;;;11.55;100.00
58018;BME280;43810;50.860;19.226;2024-03-02T12:34:33;98020.31;;;11.65;100.00
58018;BME280;43810;50.860;19.226;2024-03-02T12:36:59;98021.75;;;11.63;100.00
58018;BME280;43810;50.860;19.226;2024-03-02T12:39:25;98017.09;;;11.75;100.00
58018;BME280;43810;50.860;19.226;2024-03-02T12:41:51;98023.91;;;11.92;100.00
58018;BME280;43810;50.860;19.226;2024-03-02T12:44:19;98020.69;;;11.83;100.00
58018;BME280;43810;50.860;19.226;2024-03-02T12:46:46;98025.25;;;12.02;100.00
58018;BME280;43810;50.860;19.226;2024-03-02T12:49:13;98015.34;;;12.21;100.00
58018;BME280;43810;50.860;19.226;2024-03-02T12:51:42;98018.16;;;12.09;100.00
58018;BME280;43810;50.860;19.226;2024-03-02T12:54:11;98014.84;;;11.97;100.00
58018;BME280;43810;50.860;19.226;2024-03-02T12:56:37;98012.50;;;11.92;100.00